sensor_id;sensor_type;location;lat;lon;timestamp;P1;durP1;ratioP1;P2;durP2;ratioP2
82787;SDS011;72529;51.786;4.662;2024-01-30T00:01:00;18.81;;;18.79;;
82787;SDS011;72529;51.786;4.662;2024-01-30T00:03:25;17.51;;;17.51;;
82787;SDS011;72529;51.786;4.662;2024-01-30T00:05:50;17.88;;;17.84;;
82787;SDS011;72529;51.786;4.662;2024-01-30T00:08:16;17.77;;;17.70;;
82787;SDS011;72529;51.786;4.662;2024-01-30T00:10:41;17.03;;;17.03;;
82787;SDS011;72529;51.786;4.662;2024-01-30T00:13:07;18.01;;;17.97;;
82787;SDS011;72529;51.786;4.662;2024-01-30T00:15:32;17.92;;;17.91;;
82787;SDS011;72529;51.786;4.662;2024-01-30T00:17:57;17.76;;;17.76;;
82787;SDS011;72529;51.786;4.662;2024-01-30T00:20:23;17.10;;;17.10;;
82787;SDS011;72529;51.786;4.662;2024-01-30T00:22:48;17.42;;;17.41;;
82787;SDS011;72529;51.786;4.662;2024-01-30T00:25:14;16.74;;;16.73;;
82787;SDS011;72529;51.786;4.662;2024-01-30T00:27:39;17.19;;;17.08;;
82787;SDS011;72529;51.786;4.662;2024-01-30T00:30:05;16.86;;;16.84;;
82787;SDS011;72529;51.786;4.662;2024-01-30T00:32:31;16.47;;;16.46;;
82787;SDS011;72529;51.786;4.662;2024-01-30T00:34:57;16.96;;;16.88;;
82787;SDS011;72529;51.786;4.662;2024-01-30T00:37:22;17.56;;;17.39;;
82787;SDS011;72529;51.786;4.662;2024-01-30T00:39:48;16.26;;;16.24;;
82787;SDS011;72529;51.786;4.662;2024-01-30T00:42:14;16.48;;;16.44;;
82787;SDS011;72529;51.786;4.662;2024-01-30T00:44:40;16.24;;;16.16;;
82787;SDS011;72529;51.786;4.662;2024-01-30T00:47:05;16.46;;;16.35;;
82787;SDS011;72529;51.786;4.662;2024-01-30T00:49:31;16.24;;;16.13;;
82787;SDS011;72529;51.786;4.662;2024-01-30T00:51:56;16.54;;;16.45;;
82787;SDS011;72529;51.786;4.662;2024-01-30T00:54:22;16.69;;;16.53;;
82787;SDS011;72529;51.786;4.662;2024-01-30T00:56:47;16.31;;;16.24;;
82787;SDS011;72529;51.786;4.662;2024-01-30T00:59:13;16.30;;;16.25;;
82787;SDS011;72529;51.786;4.662;2024-01-30T01:01:38;16.39;;;16.32;;
82787;SDS011;72529;51.786;4.662;2024-01-30T01:04:04;15.89;;;15.87;;
82787;SDS011;72529;51.786;4.662;2024-01-30T01:06:29;16.51;;;16.42;;
82787;SDS011;72529;51.786;4.662;2024-01-30T01:08:55;16.43;;;16.40;;
82787;SDS011;72529;51.786;4.662;2024-01-30T01:11:20;16.14;;;16.13;;
82787;SDS011;72529;51.786;4.662;2024-01-30T01:13:45;16.16;;;16.14;;
82787;SDS011;72529;51.786;4.662;2024-01-30T01:16:11;16.27;;;16.23;;
82787;SDS011;72529;51.786;4.662;2024-01-30T01:18:36;15.82;;;15.75;;
82787;SDS011;72529;51.786;4.662;2024-01-30T01:21:02;15.83;;;15.79;;
82787;SDS011;72529;51.786;4.662;2024-01-30T01:23:27;15.67;;;15.67;;
82787;SDS011;72529;51.786;4.662;2024-01-30T01:25:53;16.12;;;16.04;;
82787;SDS011;72529;51.786;4.662;2024-01-30T01:28:18;15.90;;;15.84;;
82787;SDS011;72529;51.786;4.662;2024-01-30T01:30:44;16.17;;;16.11;;
82787;SDS011;72529;51.786;4.662;2024-01-30T01:33:09;15.55;;;15.48;;
82787;SDS011;72529;51.786;4.662;2024-01-30T01:35:35;15.75;;;15.70;;
82787;SDS011;72529;51.786;4.662;2024-01-30T01:38:00;16.18;;;16.16;;
82787;SDS011;72529;51.786;4.662;2024-01-30T01:40:26;16.10;;;16.09;;
82787;SDS011;72529;51.786;4.662;2024-01-30T01:42:53;15.61;;;15.60;;
82787;SDS011;72529;51.786;4.662;2024-01-30T01:45:19;16.18;;;16.17;;
82787;SDS011;72529;51.786;4.662;2024-01-30T01:47:47;16.17;;;16.08;;
82787;SDS011;72529;51.786;4.662;2024-01-30T01:50:16;16.24;;;16.24;;
82787;SDS011;72529;51.786;4.662;2024-01-30T01:52:43;15.87;;;15.75;;
82787;SDS011;72529;51.786;4.662;2024-01-30T01:55:12;16.62;;;16.54;;
82787;SDS011;72529;51.786;4.662;2024-01-30T01:57:38;16.54;;;16.53;;
82787;SDS011;72529;51.786;4.662;2024-01-30T02:00:04;16.57;;;16.45;;
82787;SDS011;72529;51.786;4.662;2024-01-30T02:02:30;16.39;;;16.27;;
82787;SDS011;72529;51.786;4.662;2024-01-30T02:05:00;16.26;;;16.18;;
82787;SDS011;72529;51.786;4.662;2024-01-30T02:07:26;16.65;;;16.52;;
82787;SDS011;72529;51.786;4.662;2024-01-30T02:09:53;16.40;;;16.37;;
82787;SDS011;72529;51.786;4.662;2024-01-30T02:12:19;16.62;;;16.61;;
82787;SDS011;72529;51.786;4.662;2024-01-30T02:14:45;16.02;;;16.02;;
82787;SDS011;72529;51.786;4.662;2024-01-30T02:17:16;16.22;;;16.21;;
82787;SDS011;72529;51.786;4.662;2024-01-30T02:19:42;15.86;;;15.86;;
82787;SDS011;72529;51.786;4.662;2024-01-30T02:22:07;16.38;;;16.38;;
82787;SDS011;72529;51.786;4.662;2024-01-30T02:24:34;16.62;;;16.61;;
82787;SDS011;72529;51.786;4.662;2024-01-30T02:26:59;16.49;;;16.38;;
82787;SDS011;72529;51.786;4.662;2024-01-30T02:29:25;16.75;;;16.67;;
82787;SDS011;72529;51.786;4.662;2024-01-30T02:31:50;16.95;;;16.86;;
82787;SDS011;72529;51.786;4.662;2024-01-30T02:34:18;16.26;;;16.26;;
82787;SDS011;72529;51.786;4.662;2024-01-30T02:36:44;17.14;;;17.14;;
82787;SDS011;72529;51.786;4.662;2024-01-30T02:39:11;16.45;;;16.43;;
82787;SDS011;72529;51.786;4.662;2024-01-30T02:41:36;16.02;;;16.02;;
82787;SDS011;72529;51.786;4.662;2024-01-30T02:44:02;16.23;;;16.07;;
82787;SDS011;72529;51.786;4.662;2024-01-30T02:46:28;16.76;;;16.66;;
82787;SDS011;72529;51.786;4.662;2024-01-30T02:48:54;16.49;;;16.47;;
82787;SDS011;72529;51.786;4.662;2024-01-30T02:51:20;16.09;;;16.09;;
82787;SDS011;72529;51.786;4.662;2024-01-30T02:53:45;16.15;;;16.14;;
82787;SDS011;72529;51.786;4.662;2024-01-30T02:56:11;16.39;;;16.35;;
82787;SDS011;72529;51.786;4.662;2024-01-30T02:58:39;15.95;;;15.88;;
82787;SDS011;72529;51.786;4.662;2024-01-30T03:01:05;16.04;;;16.01;;
82787;SDS011;72529;51.786;4.662;2024-01-30T03:03:31;16.00;;;15.95;;
82787;SDS011;72529;51.786;4.662;2024-01-30T03:05:57;15.93;;;15.92;;
82787;SDS011;72529;51.786;4.662;2024-01-30T03:08:22;15.39;;;15.39;;
82787;SDS011;72529;51.786;4.662;2024-01-30T03:10:48;15.69;;;15.56;;
82787;SDS011;72529;51.786;4.662;2024-01-30T03:13:14;15.49;;;15.31;;
82787;SDS011;72529;51.786;4.662;2024-01-30T03:15:39;15.47;;;15.46;;
82787;SDS011;72529;51.786;4.662;2024-01-30T03:18:05;15.86;;;15.77;;
82787;SDS011;72529;51.786;4.662;2024-01-30T03:20:30;16.08;;;16.00;;
82787;SDS011;72529;51.786;4.662;2024-01-30T03:22:56;15.42;;;15.36;;
82787;SDS011;72529;51.786;4.662;2024-01-30T03:25:22;16.13;;;16.09;;
82787;SDS011;72529;51.786;4.662;2024-01-30T03:27:47;16.19;;;16.16;;
82787;SDS011;72529;51.786;4.662;2024-01-30T03:30:12;15.91;;;15.91;;
82787;SDS011;72529;51.786;4.662;2024-01-30T03:32:38;15.50;;;15.49;;
82787;SDS011;72529;51.786;4.662;2024-01-30T03:35:03;15.88;;;15.69;;
82787;SDS011;72529;51.786;4.662;2024-01-30T03:37:29;15.38;;;15.26;;
82787;SDS011;72529;51.786;4.662;2024-01-30T03:39:55;15.71;;;15.69;;
82787;SDS011;72529;51.786;4.662;2024-01-30T03:42:20;15.55;;;15.52;;
82787;SDS011;72529;51.786;4.662;2024-01-30T03:44:47;15.77;;;15.72;;
82787;SDS011;72529;51.786;4.662;2024-01-30T03:47:13;15.25;;;15.17;;
82787;SDS011;72529;51.786;4.662;2024-01-30T03:49:38;15.01;;;14.93;;
82787;SDS011;72529;51.786;4.662;2024-01-30T03:52:04;15.39;;;15.28;;
82787;SDS011;72529;51.786;4.662;2024-01-30T03:54:29;15.51;;;15.44;;
82787;SDS011;72529;51.786;4.662;2024-01-30T03:56:55;15.18;;;15.17;;
82787;SDS011;72529;51.786;4.662;2024-01-30T03:59:20;14.81;;;14.78;;
82787;SDS011;72529;51.786;4.662;2024-01-30T04:01:51;15.26;;;15.18;;
82787;SDS011;72529;51.786;4.662;2024-01-30T04:04:17;16.02;;;16.02;;
82787;SDS011;72529;51.786;4.662;2024-01-30T04:06:43;15.23;;;15.23;;
82787;SDS011;72529;51.786;4.662;2024-01-30T04:09:09;15.31;;;15.15;;
82787;SDS011;72529;51.786;4.662;2024-01-30T04:11:35;15.72;;;15.56;;
82787;SDS011;72529;51.786;4.662;2024-01-30T04:14:00;16.17;;;16.05;;
82787;SDS011;72529;51.786;4.662;2024-01-30T04:16:25;15.34;;;15.23;;
82787;SDS011;72529;51.786;4.662;2024-01-30T04:18:51;14.63;;;14.53;;
82787;SDS011;72529;51.786;4.662;2024-01-30T04:21:17;15.12;;;15.08;;
82787;SDS011;72529;51.786;4.662;2024-01-30T04:23:42;14.63;;;14.63;;
82787;SDS011;72529;51.786;4.662;2024-01-30T04:26:08;15.43;;;15.27;;
82787;SDS011;72529;51.786;4.662;2024-01-30T04:28:33;15.25;;;15.18;;
82787;SDS011;72529;51.786;4.662;2024-01-30T04:30:59;15.12;;;15.02;;
82787;SDS011;72529;51.786;4.662;2024-01-30T04:33:24;14.67;;;14.61;;
82787;SDS011;72529;51.786;4.662;2024-01-30T04:35:50;14.92;;;14.84;;
82787;SDS011;72529;51.786;4.662;2024-01-30T04:38:15;14.93;;;14.87;;
82787;SDS011;72529;51.786;4.662;2024-01-30T04:40:41;14.15;;;14.14;;
82787;SDS011;72529;51.786;4.662;2024-01-30T04:43:06;13.94;;;13.92;;
82787;SDS011;72529;51.786;4.662;2024-01-30T04:45:31;14.82;;;14.82;;
82787;SDS011;72529;51.786;4.662;2024-01-30T04:47:57;14.31;;;14.28;;
82787;SDS011;72529;51.786;4.662;2024-01-30T04:50:23;14.12;;;14.06;;
82787;SDS011;72529;51.786;4.662;2024-01-30T04:52:48;13.58;;;13.53;;
82787;SDS011;72529;51.786;4.662;2024-01-30T04:55:14;14.38;;;14.37;;
82787;SDS011;72529;51.786;4.662;2024-01-30T04:57:40;14.20;;;14.16;;
82787;SDS011;72529;51.786;4.662;2024-01-30T05:00:05;14.46;;;14.43;;
82787;SDS011;72529;51.786;4.662;2024-01-30T05:02:31;14.10;;;14.05;;
82787;SDS011;72529;51.786;4.662;2024-01-30T05:04:57;13.99;;;13.84;;
82787;SDS011;72529;51.786;4.662;2024-01-30T05:07:24;13.68;;;13.65;;
82787;SDS011;72529;51.786;4.662;2024-01-30T05:09:50;13.93;;;13.91;;
82787;SDS011;72529;51.786;4.662;2024-01-30T05:12:15;13.65;;;13.65;;
82787;SDS011;72529;51.786;4.662;2024-01-30T05:14:41;13.65;;;13.65;;
82787;SDS011;72529;51.786;4.662;2024-01-30T05:17:06;14.19;;;14.19;;
82787;SDS011;72529;51.786;4.662;2024-01-30T05:19:33;14.03;;;14.03;;
82787;SDS011;72529;51.786;4.662;2024-01-30T05:21:58;13.82;;;13.78;;
82787;SDS011;72529;51.786;4.662;2024-01-30T05:24:24;14.18;;;14.15;;
82787;SDS011;72529;51.786;4.662;2024-01-30T05:26:49;14.30;;;14.29;;
82787;SDS011;72529;51.786;4.662;2024-01-30T05:29:16;14.00;;;13.96;;
82787;SDS011;72529;51.786;4.662;2024-01-30T05:31:41;13.35;;;13.35;;
82787;SDS011;72529;51.786;4.662;2024-01-30T05:34:07;13.76;;;13.75;;
82787;SDS011;72529;51.786;4.662;2024-01-30T05:36:34;13.46;;;13.46;;
82787;SDS011;72529;51.786;4.662;2024-01-30T05:38:59;14.55;;;14.55;;
82787;SDS011;72529;51.786;4.662;2024-01-30T05:41:25;13.82;;;13.82;;
82787;SDS011;72529;51.786;4.662;2024-01-30T05:43:53;14.11;;;14.09;;
82787;SDS011;72529;51.786;4.662;2024-01-30T05:46:19;13.94;;;13.94;;
82787;SDS011;72529;51.786;4.662;2024-01-30T05:48:44;14.30;;;14.25;;
82787;SDS011;72529;51.786;4.662;2024-01-30T05:51:09;14.00;;;13.91;;
82787;SDS011;72529;51.786;4.662;2024-01-30T05:53:35;14.29;;;14.21;;
82787;SDS011;72529;51.786;4.662;2024-01-30T05:56:04;14.30;;;14.27;;
82787;SDS011;72529;51.786;4.662;2024-01-30T05:58:30;13.77;;;13.75;;
82787;SDS011;72529;51.786;4.662;2024-01-30T06:00:56;14.33;;;14.32;;
82787;SDS011;72529;51.786;4.662;2024-01-30T06:03:22;14.85;;;14.83;;
82787;SDS011;72529;51.786;4.662;2024-01-30T06:05:48;13.77;;;13.75;;
82787;SDS011;72529;51.786;4.662;2024-01-30T06:08:13;14.33;;;14.23;;
82787;SDS011;72529;51.786;4.662;2024-01-30T06:10:39;14.01;;;13.99;;
82787;SDS011;72529;51.786;4.662;2024-01-30T06:13:04;13.53;;;13.53;;
82787;SDS011;72529;51.786;4.662;2024-01-30T06:15:29;14.12;;;14.10;;
82787;SDS011;72529;51.786;4.662;2024-01-30T06:17:55;14.32;;;14.29;;
82787;SDS011;72529;51.786;4.662;2024-01-30T06:20:21;14.24;;;14.24;;
82787;SDS011;72529;51.786;4.662;2024-01-30T06:22:46;14.33;;;14.32;;
82787;SDS011;72529;51.786;4.662;2024-01-30T06:25:12;13.89;;;13.88;;
82787;SDS011;72529;51.786;4.662;2024-01-30T06:27:37;14.26;;;14.21;;
82787;SDS011;72529;51.786;4.662;2024-01-30T06:30:03;14.30;;;14.26;;
82787;SDS011;72529;51.786;4.662;2024-01-30T06:32:29;14.69;;;14.46;;
82787;SDS011;72529;51.786;4.662;2024-01-30T06:34:59;14.42;;;14.36;;
82787;SDS011;72529;51.786;4.662;2024-01-30T06:37:25;14.36;;;14.31;;
82787;SDS011;72529;51.786;4.662;2024-01-30T06:39:50;14.42;;;14.34;;
82787;SDS011;72529;51.786;4.662;2024-01-30T06:42:17;14.57;;;14.41;;
82787;SDS011;72529;51.786;4.662;2024-01-30T06:44:42;14.13;;;14.12;;
82787;SDS011;72529;51.786;4.662;2024-01-30T06:47:08;14.15;;;14.11;;
82787;SDS011;72529;51.786;4.662;2024-01-30T06:49:33;14.17;;;14.14;;
82787;SDS011;72529;51.786;4.662;2024-01-30T06:51:58;13.99;;;13.98;;
82787;SDS011;72529;51.786;4.662;2024-01-30T06:54:24;14.19;;;14.19;;
82787;SDS011;72529;51.786;4.662;2024-01-30T06:56:49;13.86;;;13.86;;
82787;SDS011;72529;51.786;4.662;2024-01-30T06:59:15;14.15;;;14.15;;
82787;SDS011;72529;51.786;4.662;2024-01-30T07:01:41;13.57;;;13.57;;
82787;SDS011;72529;51.786;4.662;2024-01-30T07:04:06;13.46;;;13.46;;
82787;SDS011;72529;51.786;4.662;2024-01-30T07:06:32;13.57;;;13.54;;
82787;SDS011;72529;51.786;4.662;2024-01-30T07:08:57;13.73;;;13.65;;
82787;SDS011;72529;51.786;4.662;2024-01-30T07:11:22;14.42;;;14.38;;
82787;SDS011;72529;51.786;4.662;2024-01-30T07:13:50;14.13;;;14.08;;
82787;SDS011;72529;51.786;4.662;2024-01-30T07:16:16;14.24;;;14.22;;
82787;SDS011;72529;51.786;4.662;2024-01-30T07:18:43;13.89;;;13.86;;
82787;SDS011;72529;51.786;4.662;2024-01-30T07:21:09;13.83;;;13.66;;
82787;SDS011;72529;51.786;4.662;2024-01-30T07:23:35;13.46;;;13.46;;
82787;SDS011;72529;51.786;4.662;2024-01-30T07:26:04;13.77;;;13.75;;
82787;SDS011;72529;51.786;4.662;2024-01-30T07:28:30;13.92;;;13.91;;
82787;SDS011;72529;51.786;4.662;2024-01-30T07:30:55;14.09;;;14.00;;
82787;SDS011;72529;51.786;4.662;2024-01-30T07:33:21;14.11;;;14.04;;
82787;SDS011;72529;51.786;4.662;2024-01-30T07:35:46;14.21;;;14.15;;
82787;SDS011;72529;51.786;4.662;2024-01-30T07:38:12;13.66;;;13.65;;
82787;SDS011;72529;51.786;4.662;2024-01-30T07:40:37;14.65;;;14.63;;
82787;SDS011;72529;51.786;4.662;2024-01-30T07:43:03;14.74;;;14.74;;
82787;SDS011;72529;51.786;4.662;2024-01-30T07:45:28;14.24;;;14.18;;
82787;SDS011;72529;51.786;4.662;2024-01-30T07:47:57;13.91;;;13.87;;
82787;SDS011;72529;51.786;4.662;2024-01-30T07:50:23;14.48;;;14.46;;
82787;SDS011;72529;51.786;4.662;2024-01-30T07:52:48;14.02;;;14.00;;
82787;SDS011;72529;51.786;4.662;2024-01-30T07:55:16;13.64;;;13.62;;
82787;SDS011;72529;51.786;4.662;2024-01-30T07:57:42;13.17;;;13.17;;
82787;SDS011;72529;51.786;4.662;2024-01-30T08:00:08;13.21;;;13.21;;
82787;SDS011;72529;51.786;4.662;2024-01-30T08:02:33;13.66;;;13.65;;
82787;SDS011;72529;51.786;4.662;2024-01-30T08:04:59;13.46;;;13.44;;
82787;SDS011;72529;51.786;4.662;2024-01-30T08:07:24;13.18;;;13.08;;
82787;SDS011;72529;51.786;4.662;2024-01-30T08:09:50;12.81;;;12.71;;
82787;SDS011;72529;51.786;4.662;2024-01-30T08:12:15;12.92;;;12.90;;
82787;SDS011;72529;51.786;4.662;2024-01-30T08:14:41;13.66;;;13.63;;
82787;SDS011;72529;51.786;4.662;2024-01-30T08:17:07;13.37;;;13.37;;
82787;SDS011;72529;51.786;4.662;2024-01-30T08:19:32;13.54;;;13.52;;
82787;SDS011;72529;51.786;4.662;2024-01-30T08:21:58;13.66;;;13.63;;
82787;SDS011;72529;51.786;4.662;2024-01-30T08:24:24;13.37;;;13.30;;
82787;SDS011;72529;51.786;4.662;2024-01-30T08:26:49;13.73;;;13.72;;
82787;SDS011;72529;51.786;4.662;2024-01-30T08:29:15;13.83;;;13.83;;
82787;SDS011;72529;51.786;4.662;2024-01-30T08:31:40;14.22;;;14.14;;
82787;SDS011;72529;51.786;4.662;2024-01-30T08:34:06;13.44;;;13.44;;
82787;SDS011;72529;51.786;4.662;2024-01-30T08:36:31;13.22;;;13.22;;
82787;SDS011;72529;51.786;4.662;2024-01-30T08:38:57;14.07;;;14.07;;
82787;SDS011;72529;51.786;4.662;2024-01-30T08:41:22;13.51;;;13.50;;
82787;SDS011;72529;51.786;4.662;2024-01-30T08:43:48;12.74;;;12.74;;
82787;SDS011;72529;51.786;4.662;2024-01-30T08:46:17;12.90;;;12.90;;
82787;SDS011;72529;51.786;4.662;2024-01-30T08:48:43;13.30;;;13.30;;
82787;SDS011;72529;51.786;4.662;2024-01-30T08:51:09;13.43;;;13.43;;
82787;SDS011;72529;51.786;4.662;2024-01-30T08:53:34;13.36;;;13.34;;
82787;SDS011;72529;51.786;4.662;2024-01-30T08:56:01;13.18;;;13.18;;
82787;SDS011;72529;51.786;4.662;2024-01-30T08:58:27;12.96;;;12.92;;
82787;SDS011;72529;51.786;4.662;2024-01-30T09:00:53;12.69;;;12.68;;
82787;SDS011;72529;51.786;4.662;2024-01-30T09:03:18;12.48;;;12.46;;
82787;SDS011;72529;51.786;4.662;2024-01-30T09:05:44;12.99;;;12.95;;
82787;SDS011;72529;51.786;4.662;2024-01-30T09:08:09;12.51;;;12.51;;
82787;SDS011;72529;51.786;4.662;2024-01-30T09:10:35;12.82;;;12.82;;
82787;SDS011;72529;51.786;4.662;2024-01-30T09:13:00;12.47;;;12.47;;
82787;SDS011;72529;51.786;4.662;2024-01-30T09:15:26;12.41;;;12.40;;
82787;SDS011;72529;51.786;4.662;2024-01-30T09:17:51;12.53;;;12.52;;
82787;SDS011;72529;51.786;4.662;2024-01-30T09:20:17;12.30;;;12.30;;
82787;SDS011;72529;51.786;4.662;2024-01-30T09:22:42;12.37;;;12.37;;
82787;SDS011;72529;51.786;4.662;2024-01-30T09:25:08;12.71;;;12.71;;
82787;SDS011;72529;51.786;4.662;2024-01-30T09:27:33;12.35;;;12.35;;
82787;SDS011;72529;51.786;4.662;2024-01-30T09:29:59;12.51;;;12.49;;
82787;SDS011;72529;51.786;4.662;2024-01-30T09:32:24;12.48;;;12.46;;
82787;SDS011;72529;51.786;4.662;2024-01-30T09:34:50;12.75;;;12.72;;
82787;SDS011;72529;51.786;4.662;2024-01-30T09:37:15;12.17;;;12.17;;
82787;SDS011;72529;51.786;4.662;2024-01-30T09:39:43;12.46;;;12.46;;
82787;SDS011;72529;51.786;4.662;2024-01-30T09:42:11;12.38;;;12.37;;
82787;SDS011;72529;51.786;4.662;2024-01-30T09:44:38;12.67;;;12.66;;
82787;SDS011;72529;51.786;4.662;2024-01-30T09:47:08;12.26;;;12.26;;
82787;SDS011;72529;51.786;4.662;2024-01-30T09:49:35;12.65;;;12.62;;
82787;SDS011;72529;51.786;4.662;2024-01-30T09:52:02;12.52;;;12.52;;
82787;SDS011;72529;51.786;4.662;2024-01-30T09:54:30;12.17;;;12.17;;
82787;SDS011;72529;51.786;4.662;2024-01-30T09:56:57;12.80;;;12.78;;
82787;SDS011;72529;51.786;4.662;2024-01-30T09:59:23;12.17;;;12.16;;
82787;SDS011;72529;51.786;4.662;2024-01-30T10:01:49;12.46;;;12.44;;
82787;SDS011;72529;51.786;4.662;2024-01-30T10:04:15;11.96;;;11.96;;
82787;SDS011;72529;51.786;4.662;2024-01-30T10:06:41;11.66;;;11.64;;
82787;SDS011;72529;51.786;4.662;2024-01-30T10:09:07;11.43;;;11.38;;
82787;SDS011;72529;51.786;4.662;2024-01-30T10:11:33;11.07;;;11.07;;
82787;SDS011;72529;51.786;4.662;2024-01-30T10:13:59;11.01;;;10.99;;
82787;SDS011;72529;51.786;4.662;2024-01-30T10:16:25;11.00;;;10.98;;
82787;SDS011;72529;51.786;4.662;2024-01-30T10:18:50;10.59;;;10.59;;
82787;SDS011;72529;51.786;4.662;2024-01-30T10:21:16;9.87;;;9.85;;
82787;SDS011;72529;51.786;4.662;2024-01-30T10:23:43;9.52;;;9.46;;
82787;SDS011;72529;51.786;4.662;2024-01-30T10:26:09;8.50;;;8.50;;
82787;SDS011;72529;51.786;4.662;2024-01-30T10:28:34;8.49;;;8.49;;
82787;SDS011;72529;51.786;4.662;2024-01-30T10:31:00;8.13;;;8.13;;
82787;SDS011;72529;51.786;4.662;2024-01-30T10:33:26;7.33;;;7.32;;
82787;SDS011;72529;51.786;4.662;2024-01-30T10:35:56;7.39;;;7.37;;
82787;SDS011;72529;51.786;4.662;2024-01-30T10:38:28;6.92;;;6.91;;
82787;SDS011;72529;51.786;4.662;2024-01-30T10:40:58;7.12;;;7.11;;
82787;SDS011;72529;51.786;4.662;2024-01-30T10:43:31;7.27;;;7.26;;
82787;SDS011;72529;51.786;4.662;2024-01-30T10:46:08;7.45;;;7.40;;
82787;SDS011;72529;51.786;4.662;2024-01-30T10:48:46;5.04;;;5.01;;
82787;SDS011;72529;51.786;4.662;2024-01-30T10:51:18;3.84;;;3.78;;
82787;SDS011;72529;51.786;4.662;2024-01-30T10:53:47;3.26;;;3.09;;
82787;SDS011;72529;51.786;4.662;2024-01-30T10:56:14;1.83;;;1.69;;
82787;SDS011;72529;51.786;4.662;2024-01-30T10:58:41;1.39;;;1.25;;
82787;SDS011;72529;51.786;4.662;2024-01-30T11:01:07;1.16;;;1.01;;
82787;SDS011;72529;51.786;4.662;2024-01-30T11:03:34;1.51;;;1.29;;
82787;SDS011;72529;51.786;4.662;2024-01-30T11:06:02;1.53;;;1.30;;
82787;SDS011;72529;51.786;4.662;2024-01-30T11:08:28;1.90;;;1.57;;
82787;SDS011;72529;51.786;4.662;2024-01-30T11:10:57;2.01;;;1.67;;
82787;SDS011;72529;51.786;4.662;2024-01-30T11:13:30;2.23;;;1.91;;
82787;SDS011;72529;51.786;4.662;2024-01-30T11:16:00;2.26;;;1.99;;
82787;SDS011;72529;51.786;4.662;2024-01-30T11:18:26;2.43;;;2.18;;
82787;SDS011;72529;51.786;4.662;2024-01-30T11:20:58;2.42;;;2.22;;
82787;SDS011;72529;51.786;4.662;2024-01-30T11:23:26;2.61;;;2.42;;
82787;SDS011;72529;51.786;4.662;2024-01-30T11:25:56;2.59;;;2.41;;
82787;SDS011;72529;51.786;4.662;2024-01-30T11:28:22;2.77;;;2.62;;
82787;SDS011;72529;51.786;4.662;2024-01-30T11:30:48;2.68;;;2.61;;
82787;SDS011;72529;51.786;4.662;2024-01-30T11:33:16;2.84;;;2.84;;
82787;SDS011;72529;51.786;4.662;2024-01-30T11:35:53;2.96;;;2.96;;
82787;SDS011;72529;51.786;4.662;2024-01-30T11:38:19;2.98;;;2.98;;
82787;SDS011;72529;51.786;4.662;2024-01-30T11:40:44;3.49;;;3.49;;
82787;SDS011;72529;51.786;4.662;2024-01-30T11:43:10;3.51;;;3.50;;
82787;SDS011;72529;51.786;4.662;2024-01-30T11:45:37;3.04;;;2.84;;
82787;SDS011;72529;51.786;4.662;2024-01-30T11:48:03;3.22;;;2.84;;
82787;SDS011;72529;51.786;4.662;2024-01-30T11:50:29;3.47;;;2.82;;
82787;SDS011;72529;51.786;4.662;2024-01-30T11:52:55;3.74;;;2.86;;
82787;SDS011;72529;51.786;4.662;2024-01-30T11:55:23;4.74;;;3.43;;
82787;SDS011;72529;51.786;4.662;2024-01-30T11:57:49;4.87;;;3.46;;
82787;SDS011;72529;51.786;4.662;2024-01-30T12:00:15;5.41;;;3.84;;
82787;SDS011;72529;51.786;4.662;2024-01-30T12:02:43;5.31;;;3.71;;
82787;SDS011;72529;51.786;4.662;2024-01-30T12:05:13;5.64;;;3.93;;
82787;SDS011;72529;51.786;4.662;2024-01-30T12:07:39;5.68;;;3.94;;
82787;SDS011;72529;51.786;4.662;2024-01-30T12:10:04;5.40;;;3.67;;
82787;SDS011;72529;51.786;4.662;2024-01-30T12:12:30;5.14;;;3.51;;
82787;SDS011;72529;51.786;4.662;2024-01-30T12:14:56;5.27;;;3.62;;
82787;SDS011;72529;51.786;4.662;2024-01-30T12:17:23;4.63;;;3.19;;
82787;SDS011;72529;51.786;4.662;2024-01-30T12:20:12;4.92;;;3.48;;
82787;SDS011;72529;51.786;4.662;2024-01-30T12:22:41;4.54;;;3.24;;
82787;SDS011;72529;51.786;4.662;2024-01-30T12:25:10;4.06;;;2.90;;
82787;SDS011;72529;51.786;4.662;2024-01-30T12:27:37;4.38;;;3.09;;
82787;SDS011;72529;51.786;4.662;2024-01-30T12:30:10;3.64;;;2.65;;
82787;SDS011;72529;51.786;4.662;2024-01-30T12:32:42;3.55;;;2.61;;
82787;SDS011;72529;51.786;4.662;2024-01-30T12:35:15;3.79;;;2.77;;
82787;SDS011;72529;51.786;4.662;2024-01-30T12:37:45;3.75;;;2.75;;
82787;SDS011;72529;51.786;4.662;2024-01-30T12:40:13;3.57;;;2.70;;
82787;SDS011;72529;51.786;4.662;2024-01-30T12:42:40;3.29;;;2.55;;
82787;SDS011;72529;51.786;4.662;2024-01-30T12:45:07;3.47;;;2.71;;
82787;SDS011;72529;51.786;4.662;2024-01-30T12:47:32;2.78;;;2.14;;
82787;SDS011;72529;51.786;4.662;2024-01-30T12:49:58;2.16;;;1.64;;
82787;SDS011;72529;51.786;4.662;2024-01-30T12:52:23;2.72;;;2.04;;
82787;SDS011;72529;51.786;4.662;2024-01-30T12:54:50;3.00;;;2.28;;
82787;SDS011;72529;51.786;4.662;2024-01-30T12:57:16;2.63;;;2.01;;
82787;SDS011;72529;51.786;4.662;2024-01-30T12:59:43;2.92;;;2.31;;
82787;SDS011;72529;51.786;4.662;2024-01-30T13:02:09;2.47;;;2.06;;
82787;SDS011;72529;51.786;4.662;2024-01-30T13:04:35;2.43;;;2.06;;
82787;SDS011;72529;51.786;4.662;2024-01-30T13:07:01;2.89;;;2.51;;
82787;SDS011;72529;51.786;4.662;2024-01-30T13:09:29;4.00;;;3.72;;
82787;SDS011;72529;51.786;4.662;2024-01-30T13:11:55;5.15;;;5.03;;
82787;SDS011;72529;51.786;4.662;2024-01-30T13:14:20;5.82;;;5.82;;
82787;SDS011;72529;51.786;4.662;2024-01-30T13:16:45;7.35;;;7.31;;
82787;SDS011;72529;51.786;4.662;2024-01-30T13:19:11;6.16;;;6.13;;
82787;SDS011;72529;51.786;4.662;2024-01-30T13:21:37;5.75;;;5.67;;
82787;SDS011;72529;51.786;4.662;2024-01-30T13:24:02;5.22;;;5.14;;
82787;SDS011;72529;51.786;4.662;2024-01-30T13:26:28;4.58;;;4.51;;
82787;SDS011;72529;51.786;4.662;2024-01-30T13:28:56;4.37;;;4.27;;
82787;SDS011;72529;51.786;4.662;2024-01-30T13:31:21;4.30;;;4.15;;
82787;SDS011;72529;51.786;4.662;2024-01-30T13:33:47;4.32;;;4.12;;
82787;SDS011;72529;51.786;4.662;2024-01-30T13:36:13;4.23;;;4.02;;
82787;SDS011;72529;51.786;4.662;2024-01-30T13:38:39;4.15;;;3.98;;
82787;SDS011;72529;51.786;4.662;2024-01-30T13:41:05;3.57;;;3.42;;
82787;SDS011;72529;51.786;4.662;2024-01-30T13:43:30;4.06;;;3.77;;
82787;SDS011;72529;51.786;4.662;2024-01-30T13:45:56;4.37;;;4.02;;
82787;SDS011;72529;51.786;4.662;2024-01-30T13:48:21;3.97;;;3.63;;
82787;SDS011;72529;51.786;4.662;2024-01-30T13:50:47;3.51;;;3.22;;
82787;SDS011;72529;51.786;4.662;2024-01-30T13:53:13;3.77;;;3.44;;
82787;SDS011;72529;51.786;4.662;2024-01-30T13:55:39;3.58;;;3.22;;
82787;SDS011;72529;51.786;4.662;2024-01-30T13:58:04;3.38;;;3.05;;
82787;SDS011;72529;51.786;4.662;2024-01-30T14:00:30;3.13;;;2.80;;
82787;SDS011;72529;51.786;4.662;2024-01-30T14:02:55;3.90;;;3.42;;
82787;SDS011;72529;51.786;4.662;2024-01-30T14:05:22;3.30;;;2.90;;
82787;SDS011;72529;51.786;4.662;2024-01-30T14:07:48;3.82;;;3.38;;
82787;SDS011;72529;51.786;4.662;2024-01-30T14:10:15;3.90;;;3.50;;
82787;SDS011;72529;51.786;4.662;2024-01-30T14:12:41;3.25;;;2.94;;
82787;SDS011;72529;51.786;4.662;2024-01-30T14:15:07;3.95;;;3.55;;
82787;SDS011;72529;51.786;4.662;2024-01-30T14:17:34;4.13;;;3.71;;
82787;SDS011;72529;51.786;4.662;2024-01-30T14:20:01;4.07;;;3.69;;
82787;SDS011;72529;51.786;4.662;2024-01-30T14:22:28;3.96;;;3.64;;